Menzel Bourguiba, Tunisia
Current Conditions -  °F | °C
As of 10:00 PM on Thursday 20 Nov 2014 (Local Time) from DTTB Reporting Station
Clear Clear  
Wind Chill: 63°   Ceiling: Unl
Heat Index: 63°   Visibility: 6mi
Dew Point: 61°   Wind: 8mph
Humidity: 94%   Direction: 120°ESE
Pressure: 30.18"   Gusts: NA
Location:  37.16°N, 9.79°E
Report Text: DTTB 202100Z 12007KT CAVOK 17/16 Q1022
Loading
Personal Weather Stations






























Interactive Weather Map New forecast layout! Learn more

10-Day Weather Forecast

Advertisements
Track Severe Weather on mobile